sensor_id;sensor_type;location;lat;lon;timestamp;P1;durP1;ratioP1;P2;durP2;ratioP2
37895;SDS011;23733;53.254;10.430;2022-07-06T00:01:40;4.13;;;1.57;;
37895;SDS011;23733;53.254;10.430;2022-07-06T00:04:06;3.57;;;1.30;;
37895;SDS011;23733;53.254;10.430;2022-07-06T00:06:33;2.93;;;1.23;;
37895;SDS011;23733;53.254;10.430;2022-07-06T00:08:59;3.50;;;1.37;;
37895;SDS011;23733;53.254;10.430;2022-07-06T00:11:25;5.43;;;1.50;;
37895;SDS011;23733;53.254;10.430;2022-07-06T00:13:51;3.97;;;1.70;;
37895;SDS011;23733;53.254;10.430;2022-07-06T00:16:17;5.67;;;1.57;;
37895;SDS011;23733;53.254;10.430;2022-07-06T00:18:44;3.53;;;1.30;;
37895;SDS011;23733;53.254;10.430;2022-07-06T00:21:10;4.33;;;1.40;;
37895;SDS011;23733;53.254;10.430;2022-07-06T00:23:36;4.70;;;1.40;;
37895;SDS011;23733;53.254;10.430;2022-07-06T00:26:03;6.97;;;1.50;;
37895;SDS011;23733;53.254;10.430;2022-07-06T00:28:29;5.35;;;1.48;;
37895;SDS011;23733;53.254;10.430;2022-07-06T00:30:55;5.77;;;1.50;;
37895;SDS011;23733;53.254;10.430;2022-07-06T00:33:21;4.93;;;1.40;;
37895;SDS011;23733;53.254;10.430;2022-07-06T00:35:47;4.90;;;1.50;;
37895;SDS011;23733;53.254;10.430;2022-07-06T00:38:14;4.63;;;1.30;;
37895;SDS011;23733;53.254;10.430;2022-07-06T00:40:40;2.53;;;1.33;;
37895;SDS011;23733;53.254;10.430;2022-07-06T00:43:06;3.97;;;1.50;;
37895;SDS011;23733;53.254;10.430;2022-07-06T00:45:32;5.03;;;1.77;;
37895;SDS011;23733;53.254;10.430;2022-07-06T00:47:58;5.43;;;1.30;;
37895;SDS011;23733;53.254;10.430;2022-07-06T00:50:24;7.33;;;1.57;;
37895;SDS011;23733;53.254;10.430;2022-07-06T00:52:59;5.32;;;1.55;;
37895;SDS011;23733;53.254;10.430;2022-07-06T00:55:27;5.13;;;1.80;;
37895;SDS011;23733;53.254;10.430;2022-07-06T00:57:55;5.77;;;1.43;;
37895;SDS011;23733;53.254;10.430;2022-07-06T01:00:23;4.97;;;1.50;;
37895;SDS011;23733;53.254;10.430;2022-07-06T01:02:51;7.93;;;2.07;;
37895;SDS011;23733;53.254;10.430;2022-07-06T01:05:18;6.03;;;1.70;;
37895;SDS011;23733;53.254;10.430;2022-07-06T01:07:44;3.73;;;1.50;;
37895;SDS011;23733;53.254;10.430;2022-07-06T01:10:13;3.70;;;1.53;;
37895;SDS011;23733;53.254;10.430;2022-07-06T01:12:41;5.37;;;1.87;;
37895;SDS011;23733;53.254;10.430;2022-07-06T01:15:16;2.80;;;1.50;;
37895;SDS011;23733;53.254;10.430;2022-07-06T01:17:43;3.73;;;1.70;;
37895;SDS011;23733;53.254;10.430;2022-07-06T01:22:40;4.90;;;1.53;;
37895;SDS011;23733;53.254;10.430;2022-07-06T01:25:06;11.17;;;1.60;;
37895;SDS011;23733;53.254;10.430;2022-07-06T01:27:34;4.73;;;1.70;;
37895;SDS011;23733;53.254;10.430;2022-07-06T01:30:04;5.53;;;1.73;;
37895;SDS011;23733;53.254;10.430;2022-07-06T01:32:31;2.60;;;1.30;;
37895;SDS011;23733;53.254;10.430;2022-07-06T01:34:57;5.90;;;1.73;;
37895;SDS011;23733;53.254;10.430;2022-07-06T01:37:23;3.10;;;1.60;;
37895;SDS011;23733;53.254;10.430;2022-07-06T01:39:52;3.30;;;1.57;;
37895;SDS011;23733;53.254;10.430;2022-07-06T01:42:18;8.33;;;1.60;;
37895;SDS011;23733;53.254;10.430;2022-07-06T01:44:44;4.90;;;1.87;;
37895;SDS011;23733;53.254;10.430;2022-07-06T01:47:11;4.87;;;1.50;;
37895;SDS011;23733;53.254;10.430;2022-07-06T01:49:37;3.70;;;1.50;;
37895;SDS011;23733;53.254;10.430;2022-07-06T01:52:03;4.60;;;1.60;;
37895;SDS011;23733;53.254;10.430;2022-07-06T01:54:29;6.83;;;1.50;;
37895;SDS011;23733;53.254;10.430;2022-07-06T01:56:55;3.00;;;1.40;;
37895;SDS011;23733;53.254;10.430;2022-07-06T01:59:21;5.60;;;1.77;;
37895;SDS011;23733;53.254;10.430;2022-07-06T02:01:47;6.97;;;1.60;;
37895;SDS011;23733;53.254;10.430;2022-07-06T02:04:13;6.10;;;1.60;;
37895;SDS011;23733;53.254;10.430;2022-07-06T02:06:39;7.57;;;1.67;;
37895;SDS011;23733;53.254;10.430;2022-07-06T02:09:05;4.30;;;1.60;;
37895;SDS011;23733;53.254;10.430;2022-07-06T02:11:31;4.10;;;1.30;;
37895;SDS011;23733;53.254;10.430;2022-07-06T02:13:57;5.32;;;1.77;;
37895;SDS011;23733;53.254;10.430;2022-07-06T02:16:23;5.60;;;1.80;;
37895;SDS011;23733;53.254;10.430;2022-07-06T02:18:50;4.60;;;1.30;;
37895;SDS011;23733;53.254;10.430;2022-07-06T02:21:16;5.07;;;1.53;;
37895;SDS011;23733;53.254;10.430;2022-07-06T02:23:42;3.50;;;1.40;;
37895;SDS011;23733;53.254;10.430;2022-07-06T02:26:08;6.23;;;1.77;;
37895;SDS011;23733;53.254;10.430;2022-07-06T02:28:34;5.13;;;1.60;;
37895;SDS011;23733;53.254;10.430;2022-07-06T02:31:00;3.67;;;1.30;;
37895;SDS011;23733;53.254;10.430;2022-07-06T02:33:26;5.67;;;1.77;;
37895;SDS011;23733;53.254;10.430;2022-07-06T02:35:52;7.37;;;1.90;;
37895;SDS011;23733;53.254;10.430;2022-07-06T02:38:18;4.47;;;1.50;;
37895;SDS011;23733;53.254;10.430;2022-07-06T02:40:44;4.60;;;1.40;;
37895;SDS011;23733;53.254;10.430;2022-07-06T02:43:10;5.17;;;1.50;;
37895;SDS011;23733;53.254;10.430;2022-07-06T02:45:36;3.73;;;1.43;;
37895;SDS011;23733;53.254;10.430;2022-07-06T02:48:02;6.07;;;1.53;;
37895;SDS011;23733;53.254;10.430;2022-07-06T02:50:28;4.47;;;1.50;;
37895;SDS011;23733;53.254;10.430;2022-07-06T02:52:54;5.70;;;1.80;;
37895;SDS011;23733;53.254;10.430;2022-07-06T02:55:20;4.13;;;1.50;;
37895;SDS011;23733;53.254;10.430;2022-07-06T02:57:47;4.10;;;1.43;;
37895;SDS011;23733;53.254;10.430;2022-07-06T03:00:13;6.63;;;1.70;;
37895;SDS011;23733;53.254;10.430;2022-07-06T03:02:39;6.17;;;1.50;;
37895;SDS011;23733;53.254;10.430;2022-07-06T03:05:05;6.80;;;1.33;;
37895;SDS011;23733;53.254;10.430;2022-07-06T03:07:32;5.53;;;1.70;;
37895;SDS011;23733;53.254;10.430;2022-07-06T03:09:58;8.60;;;1.60;;
37895;SDS011;23733;53.254;10.430;2022-07-06T03:12:24;6.90;;;1.80;;
37895;SDS011;23733;53.254;10.430;2022-07-06T03:14:50;6.13;;;1.50;;
37895;SDS011;23733;53.254;10.430;2022-07-06T03:17:16;5.73;;;1.63;;
37895;SDS011;23733;53.254;10.430;2022-07-06T03:19:42;5.57;;;1.50;;
37895;SDS011;23733;53.254;10.430;2022-07-06T03:22:08;5.70;;;1.60;;
37895;SDS011;23733;53.254;10.430;2022-07-06T03:24:34;5.07;;;1.60;;
37895;SDS011;23733;53.254;10.430;2022-07-06T03:27:00;3.47;;;1.43;;
37895;SDS011;23733;53.254;10.430;2022-07-06T03:29:26;4.47;;;1.50;;
37895;SDS011;23733;53.254;10.430;2022-07-06T03:31:52;3.80;;;1.57;;
37895;SDS011;23733;53.254;10.430;2022-07-06T03:34:18;7.13;;;1.60;;
37895;SDS011;23733;53.254;10.430;2022-07-06T03:36:44;4.50;;;1.50;;
37895;SDS011;23733;53.254;10.430;2022-07-06T03:39:10;4.70;;;1.53;;
37895;SDS011;23733;53.254;10.430;2022-07-06T03:41:36;4.20;;;1.60;;
37895;SDS011;23733;53.254;10.430;2022-07-06T03:44:02;5.23;;;1.70;;
37895;SDS011;23733;53.254;10.430;2022-07-06T03:46:29;4.50;;;1.50;;
37895;SDS011;23733;53.254;10.430;2022-07-06T03:48:55;5.77;;;1.67;;
37895;SDS011;23733;53.254;10.430;2022-07-06T03:51:21;10.07;;;2.07;;
37895;SDS011;23733;53.254;10.430;2022-07-06T03:53:47;5.43;;;1.50;;
37895;SDS011;23733;53.254;10.430;2022-07-06T03:56:13;7.87;;;1.50;;
37895;SDS011;23733;53.254;10.430;2022-07-06T03:58:57;6.27;;;1.87;;
37895;SDS011;23733;53.254;10.430;2022-07-06T04:01:24;4.17;;;1.40;;
37895;SDS011;23733;53.254;10.430;2022-07-06T04:03:50;6.30;;;1.70;;
37895;SDS011;23733;53.254;10.430;2022-07-06T04:06:17;5.90;;;1.60;;
37895;SDS011;23733;53.254;10.430;2022-07-06T04:08:43;8.60;;;2.03;;
37895;SDS011;23733;53.254;10.430;2022-07-06T04:11:09;6.20;;;1.90;;
37895;SDS011;23733;53.254;10.430;2022-07-06T04:13:35;4.50;;;1.57;;
37895;SDS011;23733;53.254;10.430;2022-07-06T04:16:02;5.03;;;1.90;;
37895;SDS011;23733;53.254;10.430;2022-07-06T04:18:28;5.17;;;1.73;;
37895;SDS011;23733;53.254;10.430;2022-07-06T04:20:54;4.53;;;1.50;;
37895;SDS011;23733;53.254;10.430;2022-07-06T04:23:23;4.47;;;1.23;;
37895;SDS011;23733;53.254;10.430;2022-07-06T04:25:49;3.70;;;1.63;;
37895;SDS011;23733;53.254;10.430;2022-07-06T04:28:15;10.03;;;1.80;;
37895;SDS011;23733;53.254;10.430;2022-07-06T04:30:41;7.00;;;1.60;;
37895;SDS011;23733;53.254;10.430;2022-07-06T04:33:07;4.47;;;1.53;;
37895;SDS011;23733;53.254;10.430;2022-07-06T04:35:33;4.17;;;2.03;;
37895;SDS011;23733;53.254;10.430;2022-07-06T04:37:59;5.30;;;2.00;;
37895;SDS011;23733;53.254;10.430;2022-07-06T04:40:26;7.27;;;2.40;;
37895;SDS011;23733;53.254;10.430;2022-07-06T04:42:52;4.10;;;1.60;;
37895;SDS011;23733;53.254;10.430;2022-07-06T04:45:18;6.93;;;1.60;;
37895;SDS011;23733;53.254;10.430;2022-07-06T04:47:44;8.57;;;1.60;;
37895;SDS011;23733;53.254;10.430;2022-07-06T04:50:10;6.67;;;1.60;;
37895;SDS011;23733;53.254;10.430;2022-07-06T04:52:37;8.40;;;1.87;;
37895;SDS011;23733;53.254;10.430;2022-07-06T04:55:03;5.40;;;1.37;;
37895;SDS011;23733;53.254;10.430;2022-07-06T04:57:31;6.60;;;1.87;;
37895;SDS011;23733;53.254;10.430;2022-07-06T04:59:58;5.80;;;1.70;;
37895;SDS011;23733;53.254;10.430;2022-07-06T05:02:24;4.70;;;1.40;;
37895;SDS011;23733;53.254;10.430;2022-07-06T05:04:50;3.43;;;1.40;;
37895;SDS011;23733;53.254;10.430;2022-07-06T05:07:16;5.90;;;1.53;;
37895;SDS011;23733;53.254;10.430;2022-07-06T05:09:42;3.47;;;1.50;;
37895;SDS011;23733;53.254;10.430;2022-07-06T05:12:08;7.83;;;1.63;;
37895;SDS011;23733;53.254;10.430;2022-07-06T05:14:35;4.77;;;1.50;;
37895;SDS011;23733;53.254;10.430;2022-07-06T05:17:01;4.03;;;1.50;;
37895;SDS011;23733;53.254;10.430;2022-07-06T05:19:28;5.07;;;1.23;;
37895;SDS011;23733;53.254;10.430;2022-07-06T05:21:54;3.43;;;1.40;;
37895;SDS011;23733;53.254;10.430;2022-07-06T05:24:20;3.70;;;1.40;;
37895;SDS011;23733;53.254;10.430;2022-07-06T05:26:46;5.40;;;1.20;;
37895;SDS011;23733;53.254;10.430;2022-07-06T05:29:12;6.93;;;1.60;;
37895;SDS011;23733;53.254;10.430;2022-07-06T05:31:38;3.43;;;1.10;;
37895;SDS011;23733;53.254;10.430;2022-07-06T05:34:04;4.50;;;1.37;;
37895;SDS011;23733;53.254;10.430;2022-07-06T05:36:30;4.37;;;1.30;;
37895;SDS011;23733;53.254;10.430;2022-07-06T05:38:56;3.37;;;1.10;;
37895;SDS011;23733;53.254;10.430;2022-07-06T05:41:22;4.37;;;1.60;;
37895;SDS011;23733;53.254;10.430;2022-07-06T05:43:48;6.70;;;1.33;;
37895;SDS011;23733;53.254;10.430;2022-07-06T05:46:14;3.13;;;1.10;;
37895;SDS011;23733;53.254;10.430;2022-07-06T05:48:40;4.53;;;1.30;;
37895;SDS011;23733;53.254;10.430;2022-07-06T05:51:25;3.17;;;1.33;;
37895;SDS011;23733;53.254;10.430;2022-07-06T05:53:51;4.90;;;1.20;;
37895;SDS011;23733;53.254;10.430;2022-07-06T05:56:17;3.03;;;1.10;;
37895;SDS011;23733;53.254;10.430;2022-07-06T05:58:43;5.40;;;1.47;;
37895;SDS011;23733;53.254;10.430;2022-07-06T06:01:09;5.37;;;1.40;;
37895;SDS011;23733;53.254;10.430;2022-07-06T06:03:35;4.87;;;1.30;;
37895;SDS011;23733;53.254;10.430;2022-07-06T06:06:01;5.57;;;1.57;;
37895;SDS011;23733;53.254;10.430;2022-07-06T06:08:27;3.80;;;1.30;;
37895;SDS011;23733;53.254;10.430;2022-07-06T06:10:53;2.83;;;1.23;;
37895;SDS011;23733;53.254;10.430;2022-07-06T06:13:19;2.03;;;1.27;;
37895;SDS011;23733;53.254;10.430;2022-07-06T06:15:45;3.93;;;1.40;;
37895;SDS011;23733;53.254;10.430;2022-07-06T06:18:11;3.00;;;1.20;;
37895;SDS011;23733;53.254;10.430;2022-07-06T06:20:37;7.00;;;1.40;;
37895;SDS011;23733;53.254;10.430;2022-07-06T06:23:03;8.50;;;1.60;;
37895;SDS011;23733;53.254;10.430;2022-07-06T06:25:31;6.37;;;1.30;;
37895;SDS011;23733;53.254;10.430;2022-07-06T06:28:05;9.60;;;1.43;;
37895;SDS011;23733;53.254;10.430;2022-07-06T06:30:32;3.47;;;1.33;;
37895;SDS011;23733;53.254;10.430;2022-07-06T06:33:12;4.00;;;1.10;;
37895;SDS011;23733;53.254;10.430;2022-07-06T06:35:46;4.47;;;1.50;;
37895;SDS011;23733;53.254;10.430;2022-07-06T06:38:17;6.50;;;1.40;;
37895;SDS011;23733;53.254;10.430;2022-07-06T06:40:44;5.30;;;1.33;;
37895;SDS011;23733;53.254;10.430;2022-07-06T06:43:10;6.37;;;1.30;;
37895;SDS011;23733;53.254;10.430;2022-07-06T06:45:36;6.70;;;1.23;;
37895;SDS011;23733;53.254;10.430;2022-07-06T06:48:02;2.20;;;1.20;;
37895;SDS011;23733;53.254;10.430;2022-07-06T06:50:28;4.57;;;1.40;;
37895;SDS011;23733;53.254;10.430;2022-07-06T06:52:54;4.67;;;1.00;;
37895;SDS011;23733;53.254;10.430;2022-07-06T06:55:21;4.10;;;1.13;;
37895;SDS011;23733;53.254;10.430;2022-07-06T06:57:47;6.27;;;1.20;;
37895;SDS011;23733;53.254;10.430;2022-07-06T07:00:13;5.03;;;1.27;;
37895;SDS011;23733;53.254;10.430;2022-07-06T07:02:39;4.43;;;1.17;;
37895;SDS011;23733;53.254;10.430;2022-07-06T07:05:05;5.30;;;1.10;;
37895;SDS011;23733;53.254;10.430;2022-07-06T07:07:32;5.50;;;1.10;;
37895;SDS011;23733;53.254;10.430;2022-07-06T07:09:58;7.60;;;1.63;;
37895;SDS011;23733;53.254;10.430;2022-07-06T07:12:24;5.47;;;1.47;;
37895;SDS011;23733;53.254;10.430;2022-07-06T07:14:50;6.37;;;1.00;;
37895;SDS011;23733;53.254;10.430;2022-07-06T07:17:17;4.47;;;1.00;;
37895;SDS011;23733;53.254;10.430;2022-07-06T07:19:43;5.93;;;0.90;;
37895;SDS011;23733;53.254;10.430;2022-07-06T07:22:09;4.13;;;1.10;;
37895;SDS011;23733;53.254;10.430;2022-07-06T07:24:35;3.70;;;0.90;;
37895;SDS011;23733;53.254;10.430;2022-07-06T07:27:01;5.27;;;1.23;;
37895;SDS011;23733;53.254;10.430;2022-07-06T07:29:27;5.13;;;1.10;;
37895;SDS011;23733;53.254;10.430;2022-07-06T07:31:53;5.90;;;1.00;;
37895;SDS011;23733;53.254;10.430;2022-07-06T07:34:19;4.63;;;1.00;;
37895;SDS011;23733;53.254;10.430;2022-07-06T07:36:45;6.93;;;1.20;;
37895;SDS011;23733;53.254;10.430;2022-07-06T07:39:11;6.73;;;0.90;;
37895;SDS011;23733;53.254;10.430;2022-07-06T07:41:37;4.03;;;0.93;;
37895;SDS011;23733;53.254;10.430;2022-07-06T07:44:03;3.43;;;1.00;;
37895;SDS011;23733;53.254;10.430;2022-07-06T07:46:29;2.53;;;1.07;;
37895;SDS011;23733;53.254;10.430;2022-07-06T07:48:55;3.53;;;0.90;;
37895;SDS011;23733;53.254;10.430;2022-07-06T07:51:21;4.87;;;1.03;;
37895;SDS011;23733;53.254;10.430;2022-07-06T07:53:47;4.27;;;1.17;;
37895;SDS011;23733;53.254;10.430;2022-07-06T07:56:13;2.80;;;0.90;;
37895;SDS011;23733;53.254;10.430;2022-07-06T07:58:39;4.07;;;0.80;;
37895;SDS011;23733;53.254;10.430;2022-07-06T08:01:05;5.63;;;1.20;;
37895;SDS011;23733;53.254;10.430;2022-07-06T08:03:31;4.57;;;0.90;;
37895;SDS011;23733;53.254;10.430;2022-07-06T08:05:57;4.93;;;1.10;;
37895;SDS011;23733;53.254;10.430;2022-07-06T08:08:24;2.17;;;0.90;;
37895;SDS011;23733;53.254;10.430;2022-07-06T08:10:50;4.00;;;0.87;;
37895;SDS011;23733;53.254;10.430;2022-07-06T08:13:16;3.97;;;1.17;;
37895;SDS011;23733;53.254;10.430;2022-07-06T08:15:42;6.17;;;1.20;;
37895;SDS011;23733;53.254;10.430;2022-07-06T08:18:08;5.70;;;1.17;;
37895;SDS011;23733;53.254;10.430;2022-07-06T08:20:35;2.90;;;0.90;;
37895;SDS011;23733;53.254;10.430;2022-07-06T08:23:02;4.77;;;1.13;;
37895;SDS011;23733;53.254;10.430;2022-07-06T08:25:28;8.03;;;1.23;;
37895;SDS011;23733;53.254;10.430;2022-07-06T08:27:54;2.73;;;0.90;;
37895;SDS011;23733;53.254;10.430;2022-07-06T08:30:20;4.33;;;1.10;;
37895;SDS011;23733;53.254;10.430;2022-07-06T08:32:46;3.57;;;0.90;;
37895;SDS011;23733;53.254;10.430;2022-07-06T08:35:12;2.77;;;0.90;;
37895;SDS011;23733;53.254;10.430;2022-07-06T08:37:39;5.00;;;1.10;;
37895;SDS011;23733;53.254;10.430;2022-07-06T08:40:05;2.90;;;0.93;;
37895;SDS011;23733;53.254;10.430;2022-07-06T08:42:33;3.90;;;1.20;;
37895;SDS011;23733;53.254;10.430;2022-07-06T08:45:00;4.90;;;1.10;;
37895;SDS011;23733;53.254;10.430;2022-07-06T08:47:28;4.00;;;1.03;;
37895;SDS011;23733;53.254;10.430;2022-07-06T08:49:57;2.20;;;0.70;;
37895;SDS011;23733;53.254;10.430;2022-07-06T08:52:24;2.53;;;0.93;;
37895;SDS011;23733;53.254;10.430;2022-07-06T08:54:50;4.53;;;1.23;;
37895;SDS011;23733;53.254;10.430;2022-07-06T08:57:16;3.83;;;1.10;;
37895;SDS011;23733;53.254;10.430;2022-07-06T08:59:43;2.07;;;0.90;;
37895;SDS011;23733;53.254;10.430;2022-07-06T09:02:10;7.37;;;0.90;;
37895;SDS011;23733;53.254;10.430;2022-07-06T09:04:37;3.17;;;0.73;;
37895;SDS011;23733;53.254;10.430;2022-07-06T09:07:03;5.00;;;1.00;;
37895;SDS011;23733;53.254;10.430;2022-07-06T09:09:30;6.03;;;1.07;;
37895;SDS011;23733;53.254;10.430;2022-07-06T09:11:56;1.60;;;0.70;;
37895;SDS011;23733;53.254;10.430;2022-07-06T09:14:23;3.50;;;1.20;;
37895;SDS011;23733;53.254;10.430;2022-07-06T09:16:58;3.40;;;1.10;;
37895;SDS011;23733;53.254;10.430;2022-07-06T09:19:30;3.30;;;1.17;;
37895;SDS011;23733;53.254;10.430;2022-07-06T09:21:56;4.10;;;1.10;;
37895;SDS011;23733;53.254;10.430;2022-07-06T09:24:22;5.87;;;1.10;;
37895;SDS011;23733;53.254;10.430;2022-07-06T09:26:49;3.07;;;0.73;;
37895;SDS011;23733;53.254;10.430;2022-07-06T09:29:15;5.17;;;0.70;;
37895;SDS011;23733;53.254;10.430;2022-07-06T09:31:41;4.77;;;1.20;;
37895;SDS011;23733;53.254;10.430;2022-07-06T09:34:09;3.43;;;1.10;;
37895;SDS011;23733;53.254;10.430;2022-07-06T09:36:40;2.50;;;1.10;;
37895;SDS011;23733;53.254;10.430;2022-07-06T09:39:14;2.37;;;0.87;;
37895;SDS011;23733;53.254;10.430;2022-07-06T09:41:40;3.33;;;0.80;;
37895;SDS011;23733;53.254;10.430;2022-07-06T09:44:06;1.70;;;0.70;;
37895;SDS011;23733;53.254;10.430;2022-07-06T09:46:40;2.07;;;0.63;;
37895;SDS011;23733;53.254;10.430;2022-07-06T09:49:07;2.00;;;0.60;;
37895;SDS011;23733;53.254;10.430;2022-07-06T09:51:36;4.07;;;0.70;;
37895;SDS011;23733;53.254;10.430;2022-07-06T09:54:06;5.77;;;0.67;;
37895;SDS011;23733;53.254;10.430;2022-07-06T09:56:39;2.90;;;0.80;;
37895;SDS011;23733;53.254;10.430;2022-07-06T09:59:13;2.80;;;0.97;;
37895;SDS011;23733;53.254;10.430;2022-07-06T10:01:40;2.10;;;0.70;;
37895;SDS011;23733;53.254;10.430;2022-07-06T10:04:07;2.03;;;0.67;;
37895;SDS011;23733;53.254;10.430;2022-07-06T10:06:34;1.70;;;0.67;;
37895;SDS011;23733;53.254;10.430;2022-07-06T10:09:02;2.57;;;0.90;;
37895;SDS011;23733;53.254;10.430;2022-07-06T10:11:32;2.63;;;0.70;;
37895;SDS011;23733;53.254;10.430;2022-07-06T10:14:03;4.53;;;0.83;;
37895;SDS011;23733;53.254;10.430;2022-07-06T10:16:31;3.90;;;0.60;;
37895;SDS011;23733;53.254;10.430;2022-07-06T10:18:57;2.60;;;0.90;;
37895;SDS011;23733;53.254;10.430;2022-07-06T10:21:27;1.97;;;0.67;;
37895;SDS011;23733;53.254;10.430;2022-07-06T10:23:53;0.87;;;0.60;;
37895;SDS011;23733;53.254;10.430;2022-07-06T10:26:19;2.57;;;0.93;;
37895;SDS011;23733;53.254;10.430;2022-07-06T10:28:48;2.97;;;0.70;;
37895;SDS011;23733;53.254;10.430;2022-07-06T10:31:14;3.70;;;1.00;;
37895;SDS011;23733;53.254;10.430;2022-07-06T10:33:43;3.33;;;0.77;;
37895;SDS011;23733;53.254;10.430;2022-07-06T10:36:09;2.47;;;0.67;;
37895;SDS011;23733;53.254;10.430;2022-07-06T10:38:36;3.20;;;1.20;;
37895;SDS011;23733;53.254;10.430;2022-07-06T10:41:05;1.87;;;0.90;;
37895;SDS011;23733;53.254;10.430;2022-07-06T10:43:38;2.53;;;0.77;;
37895;SDS011;23733;53.254;10.430;2022-07-06T10:46:09;2.90;;;0.60;;
37895;SDS011;23733;53.254;10.430;2022-07-06T10:48:42;3.17;;;0.80;;
37895;SDS011;23733;53.254;10.430;2022-07-06T10:51:25;0.87;;;0.60;;
37895;SDS011;23733;53.254;10.430;2022-07-06T10:53:56;1.43;;;0.50;;
37895;SDS011;23733;53.254;10.430;2022-07-06T10:56:36;2.20;;;0.70;;
37895;SDS011;23733;53.254;10.430;2022-07-06T10:59:22;2.50;;;0.70;;
37895;SDS011;23733;53.254;10.430;2022-07-06T11:04:37;2.80;;;0.70;;
37895;SDS011;23733;53.254;10.430;2022-07-06T11:07:08;2.33;;;0.80;;
37895;SDS011;23733;53.254;10.430;2022-07-06T11:09:35;1.57;;;0.60;;
37895;SDS011;23733;53.254;10.430;2022-07-06T11:12:16;0.97;;;0.60;;
37895;SDS011;23733;53.254;10.430;2022-07-06T11:14:46;0.97;;;0.50;;
37895;SDS011;23733;53.254;10.430;2022-07-06T11:17:14;0.70;;;0.50;;
37895;SDS011;23733;53.254;10.430;2022-07-06T11:19:49;1.40;;;0.73;;
37895;SDS011;23733;53.254;10.430;2022-07-06T11:22:35;3.20;;;0.80;;
37895;SDS011;23733;53.254;10.430;2022-07-06T11:25:02;4.10;;;0.80;;
37895;SDS011;23733;53.254;10.430;2022-07-06T11:27:29;2.10;;;0.70;;
37895;SDS011;23733;53.254;10.430;2022-07-06T11:29:55;2.17;;;0.57;;
37895;SDS011;23733;53.254;10.430;2022-07-06T11:32:25;1.63;;;0.67;;
37895;SDS011;23733;53.254;10.430;2022-07-06T11:34:52;2.87;;;0.73;;
37895;SDS011;23733;53.254;10.430;2022-07-06T11:37:18;1.10;;;0.70;;
37895;SDS011;23733;53.254;10.430;2022-07-06T11:39:46;1.90;;;0.60;;
37895;SDS011;23733;53.254;10.430;2022-07-06T11:42:14;1.80;;;0.80;;
37895;SDS011;23733;53.254;10.430;2022-07-06T11:44:44;3.17;;;0.93;;
37895;SDS011;23733;53.254;10.430;2022-07-06T11:47:11;3.07;;;0.80;;
37895;SDS011;23733;53.254;10.430;2022-07-06T11:49:39;3.67;;;0.77;;
37895;SDS011;23733;53.254;10.430;2022-07-06T11:52:06;2.10;;;0.77;;
37895;SDS011;23733;53.254;10.430;2022-07-06T11:54:38;2.13;;;0.80;;
37895;SDS011;23733;53.254;10.430;2022-07-06T11:57:08;2.33;;;0.90;;
37895;SDS011;23733;53.254;10.430;2022-07-06T11:59:36;2.47;;;1.03;;
37895;SDS011;23733;53.254;10.430;2022-07-06T12:02:07;3.27;;;1.00;;
37895;SDS011;23733;53.254;10.430;2022-07-06T12:04:38;4.10;;;1.00;;
37895;SDS011;23733;53.254;10.430;2022-07-06T12:07:06;3.57;;;0.90;;
37895;SDS011;23733;53.254;10.430;2022-07-06T12:09:34;2.80;;;0.83;;
37895;SDS011;23733;53.254;10.430;2022-07-06T12:12:02;7.87;;;1.50;;
37895;SDS011;23733;53.254;10.430;2022-07-06T12:14:30;3.17;;;0.90;;
37895;SDS011;23733;53.254;10.430;2022-07-06T12:16:59;1.27;;;0.87;;
37895;SDS011;23733;53.254;10.430;2022-07-06T12:19:32;2.40;;;0.70;;
37895;SDS011;23733;53.254;10.430;2022-07-06T12:21:59;2.83;;;0.87;;
37895;SDS011;23733;53.254;10.430;2022-07-06T12:24:28;1.60;;;0.70;;
37895;SDS011;23733;53.254;10.430;2022-07-06T12:26:58;2.00;;;0.80;;
37895;SDS011;23733;53.254;10.430;2022-07-06T12:29:36;12.90;;;1.50;;
37895;SDS011;23733;53.254;10.430;2022-07-06T12:32:02;4.43;;;1.10;;
37895;SDS011;23733;53.254;10.430;2022-07-06T12:34:28;6.60;;;0.80;;
37895;SDS011;23733;53.254;10.430;2022-07-06T12:37:05;3.93;;;0.90;;
37895;SDS011;23733;53.254;10.430;2022-07-06T12:39:39;2.80;;;1.00;;
37895;SDS011;23733;53.254;10.430;2022-07-06T12:42:10;3.97;;;0.90;;
37895;SDS011;23733;53.254;10.430;2022-07-06T12:44:42;1.97;;;0.80;;
37895;SDS011;23733;53.254;10.430;2022-07-06T12:47:12;4.27;;;0.90;;
37895;SDS011;23733;53.254;10.430;2022-07-06T12:49:42;3.70;;;1.17;;
37895;SDS011;23733;53.254;10.430;2022-07-06T12:52:09;3.60;;;0.77;;
37895;SDS011;23733;53.254;10.430;2022-07-06T12:54:40;3.27;;;0.90;;
37895;SDS011;23733;53.254;10.430;2022-07-06T12:57:11;3.73;;;0.90;;
37895;SDS011;23733;53.254;10.430;2022-07-06T13:02:23;2.23;;;0.73;;
37895;SDS011;23733;53.254;10.430;2022-07-06T13:04:57;3.90;;;0.80;;
37895;SDS011;23733;53.254;10.430;2022-07-06T13:07:28;6.27;;;0.83;;
37895;SDS011;23733;53.254;10.430;2022-07-06T13:10:01;2.87;;;0.73;;
37895;SDS011;23733;53.254;10.430;2022-07-06T13:12:36;2.90;;;0.70;;
37895;SDS011;23733;53.254;10.430;2022-07-06T13:15:02;3.83;;;1.00;;
37895;SDS011;23733;53.254;10.430;2022-07-06T13:17:29;4.10;;;0.80;;
37895;SDS011;23733;53.254;10.430;2022-07-06T13:19:58;2.93;;;1.00;;
37895;SDS011;23733;53.254;10.430;2022-07-06T13:22:25;2.00;;;0.67;;
37895;SDS011;23733;53.254;10.430;2022-07-06T13:24:51;2.50;;;0.70;;
37895;SDS011;23733;53.254;10.430;2022-07-06T13:27:17;2.93;;;0.67;;
37895;SDS011;23733;53.254;10.430;2022-07-06T13:29:43;4.90;;;1.30;;
37895;SDS011;23733;53.254;10.430;2022-07-06T13:32:09;1.63;;;0.70;;
37895;SDS011;23733;53.254;10.430;2022-07-06T13:34:35;2.47;;;0.60;;
37895;SDS011;23733;53.254;10.430;2022-07-06T13:37:02;2.53;;;0.77;;
37895;SDS011;23733;53.254;10.430;2022-07-06T13:39:30;2.27;;;0.80;;
37895;SDS011;23733;53.254;10.430;2022-07-06T13:41:56;2.50;;;0.63;;
37895;SDS011;23733;53.254;10.430;2022-07-06T13:44:22;3.47;;;0.67;;
37895;SDS011;23733;53.254;10.430;2022-07-06T13:46:49;3.23;;;0.90;;
37895;SDS011;23733;53.254;10.430;2022-07-06T13:49:15;3.40;;;0.80;;
37895;SDS011;23733;53.254;10.430;2022-07-06T13:51:42;3.70;;;0.80;;
37895;SDS011;23733;53.254;10.430;2022-07-06T13:54:08;3.07;;;0.80;;
37895;SDS011;23733;53.254;10.430;2022-07-06T13:56:34;2.37;;;0.80;;
37895;SDS011;23733;53.254;10.430;2022-07-06T13:59:02;1.17;;;0.77;;
37895;SDS011;23733;53.254;10.430;2022-07-06T14:01:28;4.93;;;0.80;;
37895;SDS011;23733;53.254;10.430;2022-07-06T14:03:54;4.43;;;0.83;;
37895;SDS011;23733;53.254;10.430;2022-07-06T14:06:20;5.50;;;1.00;;
37895;SDS011;23733;53.254;10.430;2022-07-06T14:08:46;2.83;;;0.80;;
37895;SDS011;23733;53.254;10.430;2022-07-06T14:11:13;4.33;;;0.93;;
37895;SDS011;23733;53.254;10.430;2022-07-06T14:13:39;2.33;;;0.90;;
37895;SDS011;23733;53.254;10.430;2022-07-06T14:16:06;5.07;;;0.87;;
37895;SDS011;23733;53.254;10.430;2022-07-06T14:18:35;1.20;;;0.70;;
37895;SDS011;23733;53.254;10.430;2022-07-06T14:21:01;1.83;;;0.80;;
37895;SDS011;23733;53.254;10.430;2022-07-06T14:23:27;2.73;;;0.80;;
37895;SDS011;23733;53.254;10.430;2022-07-06T14:25:56;2.47;;;0.73;;
37895;SDS011;23733;53.254;10.430;2022-07-06T14:28:22;2.43;;;0.60;;
37895;SDS011;23733;53.254;10.430;2022-07-06T14:30:48;3.40;;;0.83;;
37895;SDS011;23733;53.254;10.430;2022-07-06T14:33:14;5.07;;;0.90;;
37895;SDS011;23733;53.254;10.430;2022-07-06T14:35:45;2.90;;;0.70;;
37895;SDS011;23733;53.254;10.430;2022-07-06T14:38:13;2.47;;;0.70;;
37895;SDS011;23733;53.254;10.430;2022-07-06T14:40:42;3.33;;;0.73;;
37895;SDS011;23733;53.254;10.430;2022-07-06T14:43:09;3.10;;;0.60;;